Time;durP1;ratioP1;P1;durP2;ratioP2;P2;SDS_P1;SDS_P2;PMS_P1;PMS_P2;Temp;Humidity;BMP_temperature;BMP_pressure;BME280_temperature;BME280_humidity;BME280_pressure;Samples;Min_cycle;Max_cycle;Signal;HPM_P1;HPM_P2
2022/11/03 00:01:36;;;;;;;10.40;5.90;;;;;;;8.25;nan;98552.53;5033977;28;20233;-69
2022/11/03 00:04:04;;;;;;;12.50;5.67;;;;;;;8.24;nan;98556.16;5034230;28;20221;-70
2022/11/03 00:06:31;;;;;;;12.13;5.97;;;;;;;8.15;nan;98549.34;5033951;28;20214;-69
2022/11/03 00:08:59;;;;;;;10.93;6.13;;;;;;;8.10;nan;98553.59;5033923;28;20209;-70
2022/11/03 00:11:25;;;;;;;12.03;5.60;;;;;;;7.97;nan;98548.19;5034082;28;20222;-70
2022/11/03 00:13:52;;;;;;;10.10;5.87;;;;;;;7.94;nan;98545.91;5033838;28;20206;-70
2022/11/03 00:16:18;;;;;;;9.27;5.53;;;;;;;7.97;nan;98540.22;5034086;28;20232;-70
2022/11/03 00:18:44;;;;;;;9.40;5.87;;;;;;;7.95;nan;98540.41;5034014;28;20210;-69
2022/11/03 00:21:13;;;;;;;12.17;6.03;;;;;;;7.98;nan;98532.09;5033716;28;20234;-69
2022/11/03 00:23:42;;;;;;;11.47;6.27;;;;;;;8.00;nan;98537.19;5033968;28;20216;-69
2022/11/03 00:26:22;;;;;;;13.00;6.37;;;;;;;7.98;nan;98537.41;5033913;28;20202;-69
2022/11/03 00:28:51;;;;;;;11.27;5.77;;;;;;;7.95;nan;98531.66;5033637;28;20686;-69
2022/11/03 00:31:23;;;;;;;13.27;6.63;;;;;;;7.92;nan;98524.09;5033787;28;20225;-70
2022/11/03 00:33:50;;;;;;;12.97;5.77;;;;;;;7.90;nan;98532.22;5033755;28;20190;-70
2022/11/03 00:36:25;;;;;;;13.70;6.10;;;;;;;7.89;nan;98527.13;5033387;28;20779;-70
2022/11/03 00:38:52;;;;;;;11.90;6.47;;;;;;;7.87;nan;98523.88;5032868;28;20206;-70
2022/11/03 00:41:20;;;;;;;11.83;6.00;;;;;;;7.86;nan;98522.19;5033353;28;20230;-70
2022/11/03 00:43:46;;;;;;;12.80;6.30;;;;;;;7.81;nan;98506.06;5033600;28;20222;-70
2022/11/03 00:46:13;;;;;;;10.53;6.10;;;;;;;7.81;nan;98500.78;5033328;28;20264;-70
2022/11/03 00:48:40;;;;;;;10.27;5.73;;;;;;;7.80;nan;98499.16;5033363;28;20214;-70
2022/11/03 00:51:12;;;;;;;9.63;5.97;;;;;;;7.79;nan;98500.16;5033191;28;20634;-70
2022/11/03 00:53:41;;;;;;;10.13;6.03;;;;;;;7.79;nan;98497.50;5033178;28;20293;-70
2022/11/03 00:56:10;;;;;;;8.60;5.63;;;;;;;7.77;nan;98486.28;5033500;28;20206;-70
2022/11/03 00:58:37;;;;;;;13.13;6.30;;;;;;;7.75;nan;98480.38;5033153;28;20217;-70
2022/11/03 01:01:06;;;;;;;10.10;6.20;;;;;;;7.77;nan;98486.28;5033082;28;20266;-70
2022/11/03 01:03:34;;;;;;;10.30;6.27;;;;;;;7.77;nan;98491.56;5033423;28;20229;-70
2022/11/03 01:08:44;;;;;;;13.37;6.50;;;;;;;7.72;nan;98486.03;5033137;28;20256;-70
2022/11/03 01:14:01;;;;;;;11.73;6.17;;;;;;;7.70;nan;98478.28;5033197;28;20652;-70
2022/11/03 01:16:29;;;;;;;12.23;6.17;;;;;;;7.63;nan;98477.44;5033031;28;20206;-72
2022/11/03 01:18:56;;;;;;;8.47;5.47;;;;;;;7.64;nan;98470.31;5033310;28;20205;-70
2022/11/03 01:21:23;;;;;;;10.00;6.43;;;;;;;7.63;nan;98471.31;5033035;28;20237;-70
2022/11/03 01:23:49;;;;;;;15.70;6.13;;;;;;;7.61;nan;98465.41;5033215;28;20221;-70
2022/11/03 01:26:16;;;;;;;10.50;6.17;;;;;;;7.63;nan;98463.38;5033105;28;20202;-70
2022/11/03 01:28:45;;;;;;;11.50;6.00;;;;;;;7.58;nan;98468.41;5033051;28;20220;-70
2022/11/03 01:31:23;;;;;;;10.57;5.67;;;;;;;7.49;nan;98456.31;5033098;28;20232;-70
2022/11/03 01:33:51;;;;;;;11.17;6.07;;;;;;;7.56;nan;98454.56;5033696;28;20190;-70
2022/11/03 01:36:19;;;;;;;14.10;6.70;;;;;;;7.56;nan;98449.28;5032833;28;20688;-70
2022/11/03 01:38:46;;;;;;;11.67;6.60;;;;;;;7.49;nan;98448.38;5032751;28;20664;-70
2022/11/03 01:41:22;;;;;;;9.40;5.90;;;;;;;7.48;nan;98441.47;5032740;28;20240;-70
2022/11/03 01:44:11;;;;;;;10.50;6.47;;;;;;;7.40;nan;98445.06;5033016;28;20226;-70
2022/11/03 01:46:51;;;;;;;12.20;6.40;;;;;;;7.44;nan;98435.75;5032627;28;20212;-70
2022/11/03 01:49:37;;;;;;;13.33;6.00;;;;;;;7.44;nan;98427.81;5033078;28;20212;-70
2022/11/03 01:52:12;;;;;;;11.93;6.37;;;;;;;7.51;nan;98422.56;5036612;28;20239;-71
2022/11/03 01:54:42;;;;;;;15.27;6.67;;;;;;;7.51;nan;98425.22;5036443;28;20196;-70
2022/11/03 01:57:15;;;;;;;12.00;6.03;;;;;;;7.43;nan;98423.50;5036107;28;20637;-70
2022/11/03 01:59:44;;;;;;;8.47;5.70;;;;;;;7.42;nan;98418.44;5036870;28;20190;-70
2022/11/03 02:02:11;;;;;;;11.90;5.90;;;;;;;7.26;nan;98413.38;5035994;28;20735;-70
2022/11/03 02:04:38;;;;;;;14.87;6.30;;;;;;;7.30;nan;98412.00;5036039;28;20221;-70
2022/11/03 02:07:13;;;;;;;13.73;6.37;;;;;;;7.30;nan;98410.19;5036114;28;20202;-70
2022/11/03 02:09:39;;;;;;;12.10;6.27;;;;;;;7.33;nan;98412.44;5036537;28;20190;-70
2022/11/03 02:12:08;;;;;;;11.50;6.30;;;;;;;7.31;nan;98409.16;5037094;28;20230;-70
2022/11/03 02:14:49;;;;;;;7.43;5.33;;;;;;;7.27;nan;98404.44;5036321;28;20209;-70
2022/11/03 02:17:17;;;;;;;9.00;5.50;;;;;;;7.20;nan;98416.78;5036349;28;20194;-70
2022/11/03 02:19:53;;;;;;;10.87;6.00;;;;;;;7.08;nan;98415.66;5036126;28;20214;-69
2022/11/03 02:22:38;;;;;;;9.57;6.13;;;;;;;7.15;nan;98403.31;5035819;28;20308;-70
2022/11/03 02:25:35;;;;;;;11.27;6.00;;;;;;;7.11;nan;98402.06;5036181;28;20213;-70
2022/11/03 02:28:03;;;;;;;8.00;5.70;;;;;;;7.11;nan;98397.56;5036088;28;20201;-70
2022/11/03 02:30:38;;;;;;;9.00;5.90;;;;;;;7.05;nan;98395.69;5036020;28;20222;-70
2022/11/03 02:33:27;;;;;;;11.87;5.90;;;;;;;7.04;nan;98388.78;5036069;28;20190;-70
2022/11/03 02:36:02;;;;;;;10.17;6.17;;;;;;;7.02;nan;98390.78;5035005;28;20200;-69
2022/11/03 02:38:32;;;;;;;10.27;6.43;;;;;;;6.95;nan;98389.91;5035678;28;20189;-70
2022/11/03 02:41:03;;;;;;;8.77;6.10;;;;;;;6.98;nan;98380.78;5035658;28;20225;-70
2022/11/03 02:43:30;;;;;;;8.33;6.07;;;;;;;7.00;nan;98378.75;5034386;28;20210;-70
2022/11/03 02:45:56;;;;;;;7.70;5.80;;;;;;;6.95;nan;98374.03;5035468;28;20206;-70
2022/11/03 02:48:22;;;;;;;14.43;7.80;;;;;;;7.02;nan;98371.47;5035710;28;20206;-70
2022/11/03 02:50:49;;;;;;;12.57;6.80;;;;;;;6.98;nan;98378.97;5035620;28;20229;-70
2022/11/03 02:53:16;;;;;;;10.47;6.10;;;;;;;6.97;nan;98361.44;5035581;28;20209;-70
2022/11/03 02:56:02;;;;;;;9.87;6.53;;;;;;;6.96;nan;98357.16;5036018;28;20205;-69
2022/11/03 02:58:34;;;;;;;10.23;6.07;;;;;;;6.94;nan;98358.38;5035530;28;20252;-70
2022/11/03 03:01:17;;;;;;;9.83;6.73;;;;;;;6.98;nan;98354.34;5036287;28;20239;-69
2022/11/03 03:03:59;;;;;;;12.40;6.40;;;;;;;6.94;nan;98347.81;5034932;28;20620;-70
2022/11/03 03:06:31;;;;;;;10.80;6.30;;;;;;;6.87;nan;98337.16;5035364;28;20212;-70
2022/11/03 03:09:04;;;;;;;11.57;6.57;;;;;;;6.83;nan;98333.25;5035375;28;20190;-70
2022/11/03 03:11:37;;;;;;;10.80;6.77;;;;;;;6.94;nan;98329.28;5035261;28;20229;-70
2022/11/03 03:14:17;;;;;;;12.47;6.27;;;;;;;6.93;nan;98322.38;5035304;28;20277;-70
2022/11/03 03:17:34;;;;;;;11.70;6.50;;;;;;;6.82;nan;98333.44;5034964;28;20190;-70
2022/11/03 03:20:26;;;;;;;8.43;6.37;;;;;;;6.80;nan;98325.72;5033007;28;20212;-70
2022/11/03 03:22:58;;;;;;;9.57;6.47;;;;;;;6.86;nan;98321.50;5034057;28;20733;-70
2022/11/03 03:25:47;;;;;;;11.37;7.07;;;;;;;6.82;nan;98309.66;5035084;28;20197;-70
2022/11/03 03:28:19;;;;;;;12.27;7.10;;;;;;;6.83;nan;98313.97;5034994;28;20202;-70
2022/11/03 03:30:46;;;;;;;11.10;6.03;;;;;;;6.89;nan;98308.75;5035027;28;20222;-70
2022/11/03 03:33:14;;;;;;;9.13;6.47;;;;;;;6.90;nan;98298.97;5034956;28;20318;-70
2022/11/03 03:35:44;;;;;;;15.00;6.63;;;;;;;6.90;nan;98305.09;5034562;28;20212;-70
2022/11/03 03:38:17;;;;;;;9.57;6.70;;;;;;;6.88;nan;98296.50;5034705;28;20208;-70
2022/11/03 03:40:48;;;;;;;13.67;7.37;;;;;;;6.89;nan;98297.34;5034721;28;20229;-69
2022/11/03 03:43:15;;;;;;;7.90;6.10;;;;;;;6.83;nan;98298.09;5034360;28;20213;-70
2022/11/03 03:45:44;;;;;;;11.90;7.20;;;;;;;6.86;nan;98295.91;5034643;28;20210;-70
2022/11/03 03:48:12;;;;;;;15.20;7.47;;;;;;;6.87;nan;98288.78;5034306;28;20684;-69
2022/11/03 03:50:42;;;;;;;15.00;7.10;;;;;;;6.81;nan;98279.78;5034442;28;20225;-70
2022/11/03 03:53:11;;;;;;;9.77;6.43;;;;;;;6.79;nan;98271.22;5034230;28;20577;-70
2022/11/03 03:55:41;;;;;;;14.27;7.00;;;;;;;6.85;nan;98280.22;5034389;28;20205;-69
2022/11/03 03:58:11;;;;;;;11.10;6.37;;;;;;;6.84;nan;98275.94;5034265;28;20206;-70
2022/11/03 04:00:39;;;;;;;13.77;7.17;;;;;;;6.86;nan;98276.56;5034315;28;20311;-70
2022/11/03 04:03:06;;;;;;;12.57;6.83;;;;;;;6.84;nan;98265.38;5034188;28;20213;-70
2022/11/03 04:05:33;;;;;;;12.23;6.67;;;;;;;6.88;nan;98261.34;5034674;28;20257;-70
2022/11/03 04:07:59;;;;;;;10.37;6.80;;;;;;;6.78;nan;98255.59;5034192;28;20210;-70
2022/11/03 04:10:25;;;;;;;10.63;6.60;;;;;;;6.84;nan;98249.53;5034151;28;20255;-70
2022/11/03 04:23:45;;;;;;;12.83;6.53;;;;;;;6.72;nan;98228.09;5033986;28;20255;-70
2022/11/03 04:26:14;;;;;;;11.83;7.37;;;;;;;6.76;nan;98236.44;5033914;28;20232;-70
2022/11/03 04:28:41;;;;;;;9.17;6.33;;;;;;;6.76;nan;98231.97;5033570;28;20708;-70
2022/11/03 04:31:13;;;;;;;11.23;6.77;;;;;;;6.79;nan;98222.84;5033761;28;20233;-70
2022/11/03 04:33:40;;;;;;;9.13;6.63;;;;;;;6.77;nan;98224.84;5033370;28;20261;-70
2022/11/03 04:36:24;;;;;;;10.27;5.97;;;;;;;6.65;nan;98223.75;5034031;28;20240;-70
2022/11/03 04:38:51;;;;;;;12.27;6.30;;;;;;;6.63;nan;98216.00;5033639;28;20190;-70
2022/11/03 04:41:37;;;;;;;12.00;6.33;;;;;;;6.69;nan;98211.81;5033535;28;20248;-70
2022/11/03 04:44:10;;;;;;;12.40;6.70;;;;;;;6.65;nan;98208.72;5033464;28;20214;-70
2022/11/03 04:46:36;;;;;;;11.27;6.57;;;;;;;6.64;nan;98209.72;5033092;28;20190;-70
2022/11/03 04:49:05;;;;;;;10.93;6.63;;;;;;;6.64;nan;98203.59;5033239;28;20217;-70
2022/11/03 04:51:34;;;;;;;13.33;6.73;;;;;;;6.61;nan;98207.44;5033482;28;20226;-70
2022/11/03 04:54:04;;;;;;;9.93;6.37;;;;;;;6.61;nan;98204.00;5033407;28;20208;-70
2022/11/03 04:56:30;;;;;;;10.43;6.77;;;;;;;6.60;nan;98199.75;5033058;28;20209;-70
2022/11/03 04:58:58;;;;;;;11.77;6.20;;;;;;;6.46;nan;98193.50;5033312;28;20217;-70
2022/11/03 05:01:24;;;;;;;11.63;6.67;;;;;;;6.39;nan;98191.81;5032888;28;20701;-70
2022/11/03 05:03:53;;;;;;;14.07;7.00;;;;;;;6.46;nan;98197.97;5033082;28;20236;-71
2022/11/03 05:06:26;;;;;;;11.87;6.80;;;;;;;6.47;nan;98191.69;5032975;28;20206;-70
2022/11/03 05:08:56;;;;;;;12.70;6.73;;;;;;;6.53;nan;98189.13;5033914;28;20190;-70
2022/11/03 05:11:37;;;;;;;10.07;6.70;;;;;;;6.54;nan;98188.09;5033089;28;20221;-70
2022/11/03 05:14:29;;;;;;;9.20;7.27;;;;;;;6.62;nan;98179.22;5033350;28;20193;-70
2022/11/03 05:16:56;;;;;;;12.80;7.00;;;;;;;6.62;nan;98173.94;5034941;28;20279;-70
2022/11/03 05:19:38;;;;;;;12.03;7.50;;;;;;;6.59;nan;98171.66;5033125;28;20216;-70
2022/11/03 05:22:05;;;;;;;10.47;7.20;;;;;;;6.57;nan;98163.13;5032277;28;20739;-70
2022/11/03 05:24:33;;;;;;;12.80;7.40;;;;;;;6.49;nan;98174.66;5033105;28;20226;-70
2022/11/03 05:27:00;;;;;;;12.83;7.47;;;;;;;6.46;nan;98167.09;5036564;28;20212;-69
2022/11/03 05:29:32;;;;;;;12.70;7.33;;;;;;;6.53;nan;98161.88;5037032;28;20220;-70
2022/11/03 05:31:58;;;;;;;13.43;7.43;;;;;;;6.58;nan;98162.13;5035876;28;20240;-70
2022/11/03 05:34:45;;;;;;;11.33;7.07;;;;;;;6.56;nan;98153.59;5037058;28;20198;-70
2022/11/03 05:37:24;;;;;;;10.33;6.90;;;;;;;6.58;nan;98151.56;5035417;28;20198;-70
2022/11/03 05:39:51;;;;;;;12.27;7.37;;;;;;;6.50;nan;98147.22;5036215;28;20564;-70
2022/11/03 05:42:44;;;;;;;10.03;6.93;;;;;;;6.60;nan;98133.72;5036629;28;20202;-70
2022/11/03 05:45:24;;;;;;;12.40;6.77;;;;;;;6.57;nan;98142.00;5036302;28;20633;-70
2022/11/03 05:47:55;;;;;;;10.03;6.90;;;;;;;6.50;nan;98134.03;5036652;28;20300;-70
2022/11/03 05:50:30;;;;;;;11.87;7.10;;;;;;;6.37;nan;98127.81;5036505;28;20658;-70
2022/11/03 05:53:01;;;;;;;11.00;6.53;;;;;;;6.38;nan;98124.97;5036503;28;20206;-69
2022/11/03 05:55:30;;;;;;;10.57;6.93;;;;;;;6.32;nan;98122.28;5036266;28;20277;-69
2022/11/03 05:58:04;;;;;;;10.67;6.80;;;;;;;6.27;nan;98127.31;5036080;28;20568;-70
2022/11/03 06:00:40;;;;;;;12.50;6.47;;;;;;;6.27;nan;98125.50;5036110;28;20738;-70
2022/11/03 06:03:06;;;;;;;11.20;6.83;;;;;;;6.17;nan;98126.84;5036212;28;20279;-68
2022/11/03 06:05:34;;;;;;;12.03;6.53;;;;;;;6.18;nan;98117.91;5036025;28;20226;-69
2022/11/03 06:08:03;;;;;;;13.93;8.00;;;;;;;6.17;nan;98125.03;5036088;28;20202;-69
2022/11/03 06:10:36;;;;;;;13.70;7.67;;;;;;;6.24;nan;98119.81;5035895;28;20236;-68
2022/11/03 06:13:11;;;;;;;12.27;7.40;;;;;;;6.11;nan;98117.03;5035825;28;20630;-69
2022/11/03 06:15:37;;;;;;;17.87;7.73;;;;;;;6.06;nan;98114.94;5035916;28;20552;-68
2022/11/03 06:18:23;;;;;;;13.07;7.53;;;;;;;6.15;nan;98113.03;5035475;28;20649;-69
2022/11/03 06:21:02;;;;;;;12.90;7.40;;;;;;;6.20;nan;98103.50;5035690;28;20291;-68
2022/11/03 06:23:28;;;;;;;11.50;6.90;;;;;;;6.23;nan;98094.38;5035508;28;20190;-69
2022/11/03 06:25:56;;;;;;;12.37;7.27;;;;;;;6.20;nan;98092.16;5035285;28;20202;-69
2022/11/03 06:28:39;;;;;;;15.07;7.50;;;;;;;6.24;nan;98090.75;5035377;28;20202;-69
2022/11/03 06:31:14;;;;;;;12.20;7.50;;;;;;;6.25;nan;98082.63;5035458;28;20571;-69
2022/11/03 06:33:40;;;;;;;8.97;6.90;;;;;;;6.30;nan;98087.34;5035373;28;20190;-69
2022/11/03 06:36:16;;;;;;;12.60;7.20;;;;;;;6.25;nan;98082.63;5034607;28;20585;-69
2022/11/03 06:38:49;;;;;;;9.97;7.00;;;;;;;6.36;nan;98089.22;5034739;28;20200;-69
2022/11/03 06:41:24;;;;;;;12.63;7.60;;;;;;;6.37;nan;98085.56;5034333;28;20236;-69
2022/11/03 06:43:51;;;;;;;14.37;7.17;;;;;;;6.29;nan;98094.44;5035249;28;20210;-69
2022/11/03 06:46:23;;;;;;;13.53;7.90;;;;;;;6.41;nan;98092.91;5035288;28;20205;-69
2022/11/03 06:48:52;;;;;;;10.20;6.53;;;;;;;6.40;nan;98093.09;5035294;28;20567;-69
2022/11/03 06:51:24;;;;;;;10.87;6.83;;;;;;;6.45;nan;98088.06;5035076;28;20226;-69
2022/11/03 06:53:52;;;;;;;12.93;7.70;;;;;;;6.52;nan;98096.88;5035149;28;20202;-69
2022/11/03 06:56:23;;;;;;;8.90;6.23;;;;;;;6.51;nan;98087.31;5034919;28;20212;-69
2022/11/03 06:58:52;;;;;;;10.03;6.87;;;;;;;6.51;nan;98097.88;5035146;28;20210;-69
2022/11/03 07:01:22;;;;;;;10.97;7.27;;;;;;;6.59;nan;98092.44;5034450;28;20596;-69
2022/11/03 07:03:58;;;;;;;12.17;7.33;;;;;;;6.60;nan;98086.16;5033398;28;20684;-69
2022/11/03 07:06:29;;;;;;;14.03;6.77;;;;;;;6.60;nan;98092.25;5034915;28;20189;-69
2022/11/03 07:08:58;;;;;;;11.60;6.83;;;;;;;6.72;nan;98081.94;5035012;28;20190;-69
2022/11/03 07:11:27;;;;;;;11.10;7.43;;;;;;;6.83;nan;98078.78;5034549;28;20605;-70
2022/11/03 07:14:02;;;;;;;9.70;7.03;;;;;;;6.95;nan;98072.75;5034682;28;20205;-69
2022/11/03 07:16:33;;;;;;;9.60;6.97;;;;;;;7.00;nan;98072.97;5034697;28;20193;-69
2022/11/03 07:19:03;;;;;;;9.30;6.30;;;;;;;7.04;nan;98065.47;5034923;28;20638;-69
2022/11/03 07:21:46;;;;;;;9.53;6.43;;;;;;;6.92;nan;98062.56;5034525;28;20233;-69
2022/11/03 07:24:27;;;;;;;8.23;6.00;;;;;;;6.93;nan;98052.81;5035099;28;20214;-69
2022/11/03 07:27:20;;;;;;;10.10;6.63;;;;;;;7.09;nan;98049.81;5034675;28;20194;-68
2022/11/03 07:29:47;;;;;;;12.63;6.63;;;;;;;7.12;nan;98054.72;5034409;28;20186;-69
2022/11/03 07:32:20;;;;;;;13.57;6.20;;;;;;;7.18;nan;98053.94;5034220;28;20210;-69
2022/11/03 07:34:47;;;;;;;10.70;6.70;;;;;;;7.19;nan;98051.09;5034442;28;20201;-70
2022/11/03 07:37:18;;;;;;;8.50;5.87;;;;;;;7.26;nan;98048.47;5034353;28;20206;-72
2022/11/03 07:39:45;;;;;;;12.23;6.53;;;;;;;7.20;nan;98046.63;5034121;28;20547;-72
2022/11/03 07:42:19;;;;;;;8.27;6.23;;;;;;;7.34;nan;98032.44;5033565;28;20232;-72
2022/11/03 07:44:46;;;;;;;10.40;6.07;;;;;;;7.48;nan;98039.41;5032957;28;20571;-72
2022/11/03 07:47:32;;;;;;;12.53;7.00;;;;;;;7.47;nan;98035.91;5034132;28;20210;-71
2022/11/03 07:49:59;;;;;;;13.37;6.70;;;;;;;7.54;nan;98035.94;5034036;28;20200;-72
2022/11/03 07:52:26;;;;;;;9.00;5.53;;;;;;;7.50;nan;98032.88;5034048;28;20212;-72
2022/11/03 07:54:55;;;;;;;12.20;6.23;;;;;;;7.71;nan;98029.25;5034008;28;20202;-71
2022/11/03 07:57:22;;;;;;;11.10;5.97;;;;;;;7.73;nan;98027.22;5033848;28;20202;-72
2022/11/03 07:59:56;;;;;;;9.27;5.60;;;;;;;7.93;nan;98033.38;5033956;28;20201;-72
2022/11/03 08:02:49;;;;;;;9.27;5.37;;;;;;;7.84;nan;98030.13;5034074;28;20190;-72
2022/11/03 08:05:16;;;;;;;11.37;5.60;;;;;;;7.73;nan;98016.63;5033418;28;20210;-71
2022/11/03 08:07:42;;;;;;;11.47;5.53;;;;;;;7.80;nan;98014.81;5033701;28;20216;-72
2022/11/03 08:10:10;;;;;;;9.33;5.77;;;;;;;7.92;nan;98015.88;5033649;28;20226;-72
2022/11/03 08:12:36;;;;;;;10.50;6.27;;;;;;;7.99;nan;98004.25;5033613;28;20205;-71
2022/11/03 08:15:02;;;;;;;9.63;5.67;;;;;;;7.94;nan;97996.09;5033782;28;20208;-71
2022/11/03 08:17:29;;;;;;;8.57;5.10;;;;;;;7.92;nan;98002.63;5033865;28;20209;-71
2022/11/03 08:19:55;;;;;;;10.33;5.70;;;;;;;8.00;nan;97991.81;5033735;28;20206;-71
2022/11/03 08:22:24;;;;;;;13.60;5.77;;;;;;;8.01;nan;97988.16;5033378;28;20220;-71
2022/11/03 08:24:51;;;;;;;9.57;5.30;;;;;;;8.03;nan;97975.53;5033806;28;20241;-71
2022/11/03 08:27:19;;;;;;;9.10;5.53;;;;;;;8.04;nan;97966.56;5033301;28;20245;-71
2022/11/03 08:29:45;;;;;;;12.47;5.63;;;;;;;8.11;nan;97968.19;5033628;28;20210;-71
2022/11/03 08:32:12;;;;;;;10.50;5.77;;;;;;;8.06;nan;97961.91;5033218;28;20212;-71
2022/11/03 08:34:38;;;;;;;8.30;5.60;;;;;;;8.15;nan;97968.59;5033170;28;20305;-71
2022/11/03 08:37:05;;;;;;;13.63;6.47;;;;;;;8.17;nan;97970.03;5033215;28;20202;-71
2022/11/03 08:39:31;;;;;;;9.20;6.27;;;;;;;8.20;nan;97960.84;5033389;28;20206;-71
2022/11/03 08:41:57;;;;;;;10.47;6.17;;;;;;;8.34;nan;97952.72;5033257;28;20228;-71
2022/11/03 08:44:24;;;;;;;8.30;5.73;;;;;;;8.47;nan;97950.00;5033099;28;20230;-71
2022/11/03 08:46:50;;;;;;;11.27;6.70;;;;;;;8.51;nan;97945.94;5033151;28;20205;-71
2022/11/03 08:49:16;;;;;;;11.40;6.27;;;;;;;8.52;nan;97941.47;5033085;28;20205;-71
2022/11/03 08:51:43;;;;;;;13.17;6.63;;;;;;;8.68;nan;97939.16;5033063;28;20241;-71
2022/11/03 08:54:09;;;;;;;8.97;6.70;;;;;;;8.73;nan;97941.19;5033283;28;20252;-71
2022/11/03 08:56:36;;;;;;;8.70;6.17;;;;;;;8.76;nan;97927.50;5033322;28;20202;-72
2022/11/03 08:59:02;;;;;;;7.67;5.57;;;;;;;8.97;nan;97927.22;5033617;28;20212;-71
2022/11/03 09:01:28;;;;;;;12.03;6.03;;;;;;;9.00;nan;97929.44;5032447;28;20226;-71
2022/11/03 09:03:55;;;;;;;8.23;5.77;;;;;;;9.05;nan;97925.13;5033213;28;20206;-71
2022/11/03 09:06:21;;;;;;;11.23;5.43;;;;;;;9.06;nan;97929.38;5033165;28;20226;-71
2022/11/03 09:08:48;;;;;;;9.23;5.73;;;;;;;9.13;nan;97924.03;5033294;28;20225;-72
2022/11/03 09:11:14;;;;;;;8.87;5.17;;;;;;;9.30;nan;97926.00;5032733;28;20229;-71
2022/11/03 09:13:40;;;;;;;13.10;6.37;;;;;;;9.35;nan;97917.38;5032871;28;20209;-72
2022/11/03 09:16:07;;;;;;;9.47;6.00;;;;;;;9.42;nan;97920.81;5033141;28;20208;-71
2022/11/03 09:18:33;;;;;;;7.90;5.47;;;;;;;9.49;nan;97916.25;5033056;28;20206;-72
2022/11/03 09:21:00;;;;;;;11.13;5.97;;;;;;;9.55;nan;97910.13;5032135;28;20232;-72
2022/11/03 09:23:26;;;;;;;7.30;5.57;;;;;;;9.68;nan;97910.81;5033039;28;20190;-71
2022/11/03 09:25:53;;;;;;;11.10;5.17;;;;;;;9.79;nan;97907.47;5032731;28;20241;-71
2022/11/03 09:28:19;;;;;;;8.87;5.30;;;;;;;9.77;nan;97914.03;5033063;28;20216;-72
2022/11/03 09:30:45;;;;;;;10.77;5.83;;;;;;;9.88;nan;97913.31;5033116;28;20236;-72
2022/11/03 09:33:12;;;;;;;10.20;5.30;;;;;;;10.06;nan;97902.75;5033077;28;20252;-72
2022/11/03 09:35:38;;;;;;;8.10;5.43;;;;;;;10.17;nan;97897.53;5032536;28;20564;-72
2022/11/03 09:38:06;;;;;;;11.23;5.53;;;;;;;10.33;nan;97904.09;5032786;28;20214;-71
2022/11/03 09:40:32;;;;;;;8.93;5.33;;;;;;;10.61;nan;97894.59;5032471;28;20567;-71
2022/11/03 09:42:59;;;;;;;8.73;4.77;;;;;;;10.68;nan;97892.66;5032721;28;20209;-72
2022/11/03 09:45:25;;;;;;;7.77;5.00;;;;;;;10.87;nan;97888.13;5032774;28;20222;-72
2022/11/03 09:47:52;;;;;;;10.33;4.43;;;;;;;11.17;nan;97885.47;5032905;28;20209;-71
2022/11/03 09:50:20;;;;;;;8.30;4.50;;;;;;;11.26;nan;97876.13;5032680;28;20226;-72
2022/11/03 09:52:47;;;;;;;6.87;3.47;;;;;;;11.36;nan;97873.72;5032250;28;20206;-72
2022/11/03 09:55:17;;;;;;;6.83;4.10;;;;;;;11.39;nan;97866.06;5032872;28;20204;-72
2022/11/03 09:57:46;;;;;;;10.13;4.23;;;;;;;11.45;nan;97873.16;5032989;28;20233;-72
2022/11/03 10:00:19;;;;;;;6.90;4.97;;;;;;;11.52;nan;97867.75;5032628;28;20332;-72
2022/11/03 10:02:47;;;;;;;11.87;4.50;;;;;;;11.67;nan;97860.13;5033184;28;20213;-72
2022/11/03 10:05:16;;;;;;;10.40;5.30;;;;;;;11.63;nan;97865.13;5032688;28;20333;-72
2022/11/03 10:07:43;;;;;;;8.67;5.00;;;;;;;11.44;nan;97857.41;5032673;28;20236;-71
2022/11/03 10:10:16;;;;;;;9.07;5.00;;;;;;;11.45;nan;97861.69;5033093;28;20229;-71
2022/11/03 10:12:43;;;;;;;11.87;5.33;;;;;;;11.65;nan;97855.03;5018057;28;20241;-71
2022/11/03 10:15:18;;;;;;;9.53;5.17;;;;;;;11.84;nan;97850.44;5036890;28;20199;-71
2022/11/03 10:17:46;;;;;;;9.03;4.83;;;;;;;11.61;nan;97845.09;5036706;28;20595;-71
2022/11/03 10:20:14;;;;;;;8.23;4.90;;;;;;;11.72;nan;97847.78;5035620;28;20237;-72
2022/11/03 10:22:43;;;;;;;9.10;4.87;;;;;;;11.67;nan;97847.63;5035552;28;20716;-72
2022/11/03 10:25:28;;;;;;;9.20;4.80;;;;;;;11.83;nan;97843.47;5035466;28;20652;-72
2022/11/03 10:28:25;;;;;;;8.60;5.07;;;;;;;11.79;nan;97842.28;5035821;28;20234;-71
2022/11/03 10:31:05;;;;;;;9.63;4.97;;;;;;;11.78;nan;97833.53;5036069;28;20294;-72
2022/11/03 10:33:32;;;;;;;8.97;4.60;;;;;;;11.78;nan;97830.03;5036334;28;20196;-72
2022/11/03 10:36:19;;;;;;;7.73;4.50;;;;;;;11.84;nan;97815.81;5035564;28;20510;-72
2022/11/03 10:38:46;;;;;;;9.13;4.23;;;;;;;11.90;nan;97813.03;5038442;28;20212;-72
2022/11/03 10:41:18;;;;;;;10.73;4.70;;;;;;;11.99;nan;97808.16;5035620;28;20240;-72
2022/11/03 10:43:56;;;;;;;7.57;3.97;;;;;;;12.01;nan;97804.19;5035767;28;20300;-72
2022/11/03 10:46:22;;;;;;;8.77;3.93;;;;;;;12.10;nan;97809.97;5040435;28;20699;-72
2022/11/03 10:49:05;;;;;;;6.23;3.13;;;;;;;12.07;nan;97800.59;5045624;28;20213;-72
2022/11/03 10:51:34;;;;;;;8.83;4.20;;;;;;;12.32;nan;97800.31;5050391;28;20225;-72
2022/11/03 10:54:02;;;;;;;8.87;3.90;;;;;;;12.24;nan;97795.34;5054890;28;20209;-73
2022/11/03 10:56:29;;;;;;;6.23;3.27;;;;;;;12.24;nan;97793.50;5043930;28;20206;-72
2022/11/03 10:58:59;;;;;;;7.07;4.00;;;;;;;12.33;nan;97785.94;5035722;28;20556;-72
2022/11/03 11:01:26;;;;;;;8.60;3.87;;;;;;;12.28;nan;97777.84;5035264;28;20232;-70
2022/11/03 11:03:54;;;;;;;4.03;3.37;;;;;;;12.29;nan;97779.47;5035364;28;20216;-72
2022/11/03 11:06:26;;;;;;;5.43;3.73;;;;;;;12.25;nan;97770.34;5034891;28;20232;-71
2022/11/03 11:08:56;;;;;;;6.13;4.00;;;;;;;12.16;nan;97769.88;5035451;28;20300;-72
2022/11/03 11:11:22;;;;;;;9.53;4.23;;;;;;;12.17;nan;97766.16;5034736;28;20229;-72
2022/11/03 11:14:21;;;;;;;7.40;4.30;;;;;;;12.12;nan;97754.59;5034782;28;20786;-72
2022/11/03 11:17:01;;;;;;;7.40;3.93;;;;;;;12.22;nan;97739.63;5043391;28;20280;-72
2022/11/03 11:19:29;;;;;;;12.57;4.67;;;;;;;12.08;nan;97734.78;5043115;28;20630;-72
2022/11/03 11:21:55;;;;;;;12.37;4.47;;;;;;;12.14;nan;97734.66;5044043;28;20599;-72
2022/11/03 11:24:43;;;;;;;8.93;4.50;;;;;;;12.18;nan;97730.50;5043792;28;20211;-71
2022/11/03 11:27:31;;;;;;;10.37;4.80;;;;;;;12.19;nan;97726.78;5037029;28;20548;-71
2022/11/03 11:29:59;;;;;;;10.90;4.70;;;;;;;12.08;nan;97724.13;5034374;28;20256;-71
2022/11/03 11:32:45;;;;;;;9.50;4.73;;;;;;;12.07;nan;97720.66;5033515;28;20307;-71
2022/11/03 11:35:18;;;;;;;10.97;5.27;;;;;;;12.13;nan;97719.72;5033411;28;20205;-71
2022/11/03 11:37:45;;;;;;;8.30;5.30;;;;;;;12.13;nan;97710.91;5034283;28;20204;-70
2022/11/03 11:40:34;;;;;;;9.23;5.33;;;;;;;12.04;nan;97712.34;5034141;28;20309;-70
2022/11/03 11:43:01;;;;;;;8.60;5.53;;;;;;;12.06;nan;97710.22;5034484;28;20225;-70
2022/11/03 11:46:12;;;;;;;11.80;5.20;;;;;;;12.07;nan;97710.00;5034269;28;20235;-71
2022/11/03 11:48:38;;;;;;;8.83;5.33;;;;;;;12.22;nan;97702.31;5033373;28;20224;-71
2022/11/03 11:51:10;;;;;;;9.83;5.27;;;;;;;12.34;nan;97688.94;5033991;28;20236;-71
2022/11/03 11:53:41;;;;;;;8.83;4.80;;;;;;;12.36;nan;97684.16;5034132;28;20235;-71
2022/11/03 11:56:15;;;;;;;8.43;5.00;;;;;;;12.32;nan;97672.38;5034108;28;20220;-71
2022/11/03 11:58:53;;;;;;;11.33;5.37;;;;;;;12.35;nan;97674.56;5034242;28;20256;-71
2022/11/03 12:01:34;;;;;;;8.63;4.80;;;;;;;12.36;nan;97660.19;5033458;28;20275;-71
2022/11/03 12:04:36;;;;;;;9.63;5.37;;;;;;;12.22;nan;97667.69;5034135;28;20200;-71
2022/11/03 12:07:02;;;;;;;8.37;5.20;;;;;;;12.19;nan;97667.31;5031620;28;20233;-71
2022/11/03 12:09:29;;;;;;;7.73;4.90;;;;;;;12.14;nan;97660.06;5033311;28;20208;-71
2022/11/03 12:11:58;;;;;;;8.03;4.73;;;;;;;12.18;nan;97653.22;5033559;28;20728;-71
2022/11/03 12:14:25;;;;;;;11.00;5.20;;;;;;;12.17;nan;97648.91;5033766;28;20213;-72
2022/11/03 12:16:52;;;;;;;8.30;5.00;;;;;;;12.23;nan;97641.81;5033825;28;20200;-70
2022/11/03 12:19:40;;;;;;;8.40;5.10;;;;;;;12.22;nan;97632.22;5033304;28;20228;-71
2022/11/03 12:22:09;;;;;;;10.40;4.97;;;;;;;12.23;nan;97626.66;5033320;28;20232;-71
2022/11/03 12:25:07;;;;;;;8.20;4.80;;;;;;;12.19;nan;97625.50;5036526;28;20295;-71
2022/11/03 12:27:33;;;;;;;8.90;5.20;;;;;;;12.23;nan;97621.31;5032975;28;20202;-71
2022/11/03 12:30:02;;;;;;;8.93;4.70;;;;;;;12.17;nan;97627.56;5033339;28;20219;-70